Have a Safe July 4th! 

Flight Track Log - Related Links

Times and Time Zones

All times are in EDT time to prevent confusion due to time zone crossing. See the AAL936 flight status page for this flight to view local times or setup timezone preferences in your user account.

Time Position Orientation Groundspeed Altitude Reporting Facility
EDT Latitude Longitude Course Direction KTS MPH feet Rate Location/Type
Tue 10:34:13 PM 25.7992 -80.3161 271° West 177 204 1,600  Level Miami Center
Tue 10:35:17 PM 25.8000 -80.3761 278° West 225 259 3,500 2,769 Climbing Miami Center
Tue 10:35:57 PM 25.8069 -80.4339 North 246 283 6,400 3,471 Climbing Miami Center
Tue 10:36:59 PM 25.8761 -80.4267 73° East 281 323 9,400 2,314 Climbing Miami Center
Tue 10:38:17 PM 25.9081 -80.3122 78° East 321 369 11,800 2,000 Climbing Miami Center
Tue 10:39:17 PM 25.9294 -80.1997 77° East 337 388 14,000 2,370 Climbing Miami Center
Tue 10:40:16 PM 25.9550 -80.0781 77° East 372 428 16,500 2,471 Climbing Miami Center
Tue 10:41:16 PM 25.9808 -79.9539 80° East 400 460 18,900 2,231 Climbing Miami Center
Tue 10:42:17 PM 26.0022 -79.8225 61° Northeast 414 476 21,000 2,050 Climbing Miami Center
Tue 10:43:16 PM 26.0611 -79.7039 20° North 426 490 23,000 2,050 Climbing Miami Center
Tue 10:44:17 PM 26.1747 -79.6581 14° North 395 455 25,100 1,967 Climbing Miami Center
Tue 10:45:18 PM 26.3069 -79.6217 15° North 405 466 27,000 1,820 Climbing Miami Center
Tue 10:46:19 PM 26.4267 -79.5850 16° North 443 510 28,800 1,424 Climbing Miami Center
Tue 10:47:16 PM 26.5297 -79.5525 15° North 461 531 29,800 1,282 Climbing Miami Center
Tue 10:48:16 PM 26.6706 -79.5092 15° North 466 536 31,300 1,537 Climbing Miami Center
Tue 10:49:17 PM 26.8028 -79.4703 17° North 477 549 32,900 1,721 Climbing Miami Center
Tue 10:50:18 PM 26.9456 -79.4222 16° North 482 555 34,800 1,537 Climbing Miami Center
Tue 10:51:18 PM 27.0758 -79.3808 15° North 477 549 36,000 1,050 Climbing Miami Center
Tue 10:52:18 PM 27.2061 -79.3417 15° North 483 556 36,900 508 Climbing Miami Center
Tue 10:53:16 PM 27.3256 -79.3044 15° North 483 556 37,000 50 Climbing Miami Center
Tue 10:54:17 PM 27.4642 -79.2628 16° North 496 571 37,000  Level Miami Center
Tue 10:55:17 PM 27.6153 -79.2144 15° North 510 587 37,000  Level Miami Center
Tue 10:56:17 PM 27.7497 -79.1728 16° North 510 587 37,000  Level Miami Center
Tue 10:57:18 PM 27.8861 -79.1283 16° North 510 587 37,000  Level Miami Center
Tue 10:58:19 PM 28.0183 -79.0842 16° North 504 580 37,000  Level Miami Center
Tue 10:59:16 PM 28.1547 -79.0397 16° North 494 568 37,000  Level Miami Center
Tue 11:00:18 PM 28.2783 -78.9994 15° North 500 575 37,000  Level Miami Center
Tue 11:01:19 PM 28.4147 -78.9572 16° North 500 575 37,000  Level Miami Center
Tue 11:02:17 PM 28.5511 -78.9125 16° North 500 575 37,000  Level Miami Center
Tue 11:03:16 PM 28.6853 -78.8678 16° North 500 575 37,000  Level Miami Center
Tue 11:04:17 PM 28.8194 -78.8228 17° North 493 567 37,000  Level Miami Center
Tue 11:05:17 PM 28.9556 -78.7753 15° North 498 573 37,000  Level Miami Center
Tue 11:06:18 PM 29.0919 -78.7325 16° North 498 573 37,000  Level Miami Center
Tue 11:07:16 PM 29.2303 -78.6875 14° North 498 573 37,000  Level Miami Center
Tue 11:08:16 PM 29.3683 -78.6469 18° North 498 573 37,000  Level Miami Center
Tue 11:09:17 PM 29.5003 -78.5964 15° North 498 573 37,000  Level Miami Center
Tue 11:10:17 PM 29.6364 -78.5533 16° North 503 579 37,000  Level Miami Center
Tue 11:11:09 PM 29.7736 -78.5094 18° North 498 573 37,000  Level Jacksonville Center
Tue 11:12:10 PM 29.9014 -78.4606 12° North 482 555 37,000  Level Jacksonville Center
Tue 11:13:10 PM 30.0358 -78.4278 13° North 489 563 37,000  Level Jacksonville Center
Tue 11:14:09 PM 30.1619 -78.3933 North 473 544 37,000  Level Jacksonville Center
Tue 11:15:09 PM 30.2700 -78.3736 North 462 532 37,000  Level Jacksonville Center
Tue 11:16:09 PM 30.4006 -78.3483 11° North 467 537 37,000  Level Jacksonville Center
Tue 11:17:09 PM 30.5289 -78.3181 10° North 472 543 37,000  Level Jacksonville Center
Tue 11:18:09 PM 30.6594 -78.2925 10° North 472 543 37,000  Level Jacksonville Center
Tue 11:19:09 PM 30.7919 -78.2642 10° North 472 543 37,000  Level Jacksonville Center
Tue 11:20:09 PM 30.9183 -78.2389 North 466 536 37,000  Level Jacksonville Center
Tue 11:21:09 PM 31.0575 -78.2222 11° North 472 543 37,000  Level Jacksonville Center
Tue 11:22:09 PM 31.1797 -78.1942 10° North 477 549 37,000  Level Jacksonville Center
Tue 11:23:09 PM 31.3061 -78.1686 10° North 466 536 37,000  Level Jacksonville Center
Tue 11:24:09 PM 31.4303 -78.1428 11° North 461 531 37,000  Level Jacksonville Center
Tue 11:25:09 PM 31.5544 -78.1144 10° North 456 525 37,000  Level Jacksonville Center
Tue 11:26:09 PM 31.6808 -78.0883 11° North 451 519 37,000  Level Jacksonville Center
Tue 11:27:09 PM 31.8031 -78.0600 10° North 451 519 37,000  Level Jacksonville Center
Tue 11:28:09 PM 31.9314 -78.0339 11° North 457 526 37,000  Level Jacksonville Center
Tue 11:29:09 PM 32.0597 -78.0050 North 462 532 37,000  Level Jacksonville Center
Tue 11:30:09 PM 32.1861 -77.9811 12° North 462 532 37,000  Level Jacksonville Center
Tue 11:31:09 PM 32.3142 -77.9494 10° North 462 532 37,000  Level Jacksonville Center
Tue 11:32:09 PM 32.4425 -77.9228 10° North 462 532 37,000  Level Jacksonville Center
Tue 11:33:09 PM 32.5711 -77.8961 11° North 462 532 37,000  Level Jacksonville Center
Tue 11:34:10 PM 32.6972 -77.8669 North 462 532 37,000  Level Jacksonville Center
Tue 11:35:09 PM 32.8233 -77.8425 11° North 462 532 37,000  Level Jacksonville Center
Tue 11:36:09 PM 32.9494 -77.8133 11° North 462 532 37,000  Level Jacksonville Center
Tue 11:37:09 PM 33.0736 -77.7839 North 462 532 37,000  Level Jacksonville Center
Tue 11:38:47 PM 33.2806 -77.7425 11° North 471 542 37,000  Level Washington Center
Tue 11:39:48 PM 33.4061 -77.7136 10° North 466 536 37,000  Level Washington Center
Tue 11:40:49 PM 33.5319 -77.6869 11° North 466 536 37,000  Level Washington Center
Tue 11:41:49 PM 33.6556 -77.6575 10° North 460 529 37,000  Level Washington Center
Tue 11:42:47 PM 33.7831 -77.6306 12° North 455 524 37,000  Level Washington Center
Tue 11:43:47 PM 33.9089 -77.5986 North 455 524 37,000  Level Washington Center
Tue 11:44:48 PM 34.0511 -77.5722 11° North 455 524 37,000  Level Washington Center
Tue 11:45:47 PM 34.1769 -77.5425 10° North 460 529 37,000  Level Washington Center
Tue 11:46:48 PM 34.3067 -77.5153 10° North 465 535 37,000  Level Washington Center
Tue 11:47:49 PM 34.4322 -77.4881 11° North 465 535 37,000  Level Washington Center
Tue 11:48:47 PM 34.5619 -77.4583 22° Northeast 465 535 37,000  Level Washington Center
Tue 11:49:47 PM 34.6839 -77.3981 24° Northeast 465 535 37,000  Level Washington Center
Tue 11:50:48 PM 34.8058 -77.3322 26° Northeast 471 542 37,000  Level Washington Center
Tue 11:51:48 PM 34.9281 -77.2589 25° Northeast 476 548 37,000  Level Washington Center
Tue 11:52:47 PM 35.0500 -77.1906 24° Northeast 476 548 37,000  Level Washington Center
Tue 11:53:47 PM 35.1719 -77.1242 24° Northeast 483 556 37,000  Level Washington Center
Tue 11:54:47 PM 35.2958 -77.0578 24° Northeast 483 556 37,000  Level Washington Center
Tue 11:55:47 PM 35.4197 -76.9889 25° Northeast 483 556 37,000  Level Washington Center
Tue 11:56:48 PM 35.5478 -76.9169 24° Northeast 491 565 37,000  Level Washington Center
Tue 11:57:48 PM 35.6633 -76.8525 25° Northeast 470 541 37,000  Level Washington Center
Tue 11:58:47 PM 35.7869 -76.7828 25° Northeast 470 541 37,000  Level Washington Center
Tue 11:59:46 PM 35.9089 -76.7128 25° Northeast 470 541 37,000  Level Washington Center
Wed 12:00:49 AM 36.0306 -76.6425 24° Northeast 470 541 37,000  Level Washington Center
Wed 12:01:47 AM 36.1542 -76.5747 24° Northeast 476 548 37,000  Level Washington Center
Wed 12:02:48 AM 36.2778 -76.5067 25° Northeast 476 548 37,000  Level Washington Center
Wed 12:03:48 AM 36.4014 -76.4358 25° Northeast 481 554 37,000  Level Washington Center
Wed 12:04:48 AM 36.5228 -76.3647 24° Northeast 481 554 37,000  Level Washington Center
Wed 12:05:46 AM 36.6464 -76.2961 26° Northeast 481 554 37,000  Level Washington Center
Wed 12:06:48 AM 36.7572 -76.2297 27° Northeast 481 554 37,000  Level Washington Center
Wed 12:07:49 AM 36.8767 -76.1528 25° Northeast 481 554 37,000  Level Washington Center
Wed 12:08:48 AM 37.0019 -76.0783 28° Northeast 488 562 37,000  Level Washington Center
Wed 12:09:47 AM 37.1214 -75.9983 28° Northeast 488 562 37,000  Level Washington Center
Wed 12:10:48 AM 37.2403 -75.9181 29° Northeast 483 556 37,000  Level Washington Center
Wed 12:11:49 AM 37.3617 -75.8347 27° Northeast 483 556 37,000  Level Washington Center
Wed 12:12:48 AM 37.4828 -75.7567 29° Northeast 483 556 37,000  Level Washington Center
Wed 12:13:49 AM 37.6017 -75.6731 29° Northeast 483 556 37,000  Level Washington Center
Wed 12:14:49 AM 37.7206 -75.5892 28° Northeast 488 562 37,000  Level Washington Center
Wed 12:15:49 AM 37.8414 -75.5075 28° Northeast 488 562 37,000  Level Washington Center
Wed 12:16:48 AM 37.9583 -75.4283 29° Northeast 488 562 37,000  Level Washington Center
Wed 12:17:47 AM 38.0789 -75.3439 27° Northeast 483 556 37,000  Level Washington Center
Wed 12:18:47 AM 38.1997 -75.2667 32° Northeast 478 550 37,000  Level Washington Center
Wed 12:19:48 AM 38.3267 -75.1656 28° Northeast 478 550 37,000  Level Washington Center
Wed 12:20:48 AM 38.4431 -75.0856 29° Northeast 483 556 37,000  Level Washington Center
Wed 12:21:47 AM 38.5658 -74.9994 28° Northeast 483 556 37,000 -50 Level Washington Center
Wed 12:22:47 AM 38.6842 -74.9189 29° Northeast 483 556 36,900 -1,091 Descending Washington Center
Wed 12:23:48 AM 38.8025 -74.8353 30° Northeast 478 550 34,800 -2,400 Descending Washington Center
Wed 12:24:47 AM 38.9228 -74.7458 29° Northeast 483 556 32,100 -2,874 Descending Washington Center
Wed 12:25:47 AM 39.0431 -74.6617 29° Northeast 483 556 29,100 -2,600 Descending Washington Center
Wed 12:26:47 AM 39.1569 -74.5797 30° Northeast 477 549 26,900 -2,150 Descending Washington Center
Wed 12:27:47 AM 39.2647 -74.5006 29° Northeast 464 534 24,800 -2,020 Descending Washington Center
Wed 12:30:06 AM 39.4842 -74.3431 31° Northeast 413 475 20,200 -1,779 Descending New York Center
Wed 12:31:06 AM 39.5931 -74.2569 39° Northeast 413 475 18,900 -1,169 Descending New York Center
Wed 12:32:04 AM 39.6814 -74.1642 40° Northeast 408 470 17,900 -1,450 Descending New York Center
Wed 12:33:06 AM 39.7589 -74.0789 40° Northeast 402 463 16,000 -2,016 Descending New York Center
Wed 12:34:06 AM 39.8425 -73.9881 30° Northeast 397 457 13,800 -2,390 Descending New York Center
Wed 12:35:04 AM 39.9425 -73.9142 29° Northeast 374 430 11,300 -1,412 Descending New York Center
Wed 12:36:05 AM 40.0233 -73.8556 28° Northeast 350 403 11,000 -393 Descending New York Center
Wed 12:37:06 AM 40.0869 -73.8122 37° Northeast 305 351 10,500 -968 Descending New York Center
Wed 12:37:38 AM 40.1333 -73.7667 30° Northeast 296 341 9,500 -1,744 Descending New York TRACON
Wed 12:38:32 AM 40.2000 -73.7167 27° Northeast 294 338 8,000 -1,465 Descending New York TRACON
Wed 12:39:04 AM 40.2339 -73.6936 31° Northeast 295 339 7,400 -1,213 Descending New York Center
Wed 12:40:06 AM 40.3039 -73.6394 29° Northeast 290 334 6,100 -893 Descending New York Center
Wed 12:41:05 AM 40.3717 -73.5906 22° Northeast 284 327 5,600 -457 Descending New York Center
Wed 12:41:38 AM 40.4167 -73.5667 30° Northeast 281 323 5,400 -452 Descending New York TRACON
Wed 12:42:38 AM 40.4833 -73.5167 360° North 277 319 4,900 -526 Descending New York TRACON
Wed 12:43:32 AM 40.5500 -73.5167 360° North 274 315 4,400 -579 Descending New York TRACON
Wed 12:44:32 AM 40.6167 -73.5167 351° North 264 304 3,800 -650 Descending New York TRACON
Wed 12:45:32 AM 40.7000 -73.5333 303° West 250 288 3,100 -450 Descending New York TRACON
Wed 12:46:32 AM 40.7333 -73.6000 303° West 209 241 2,900 -200 Descending New York TRACON

Login

Don't have an account? Register now (free) for customized features, flight alerts, and more!